sensor_id;sensor_type;location;lat;lon;timestamp;pressure;altitude;pressure_sealevel;temperature;humidity
36190;BME280;22232;50.914;13.858;2024-03-23T00:55:22;96981.38;;;10.24;100.00
36190;BME280;22232;50.914;13.858;2024-03-23T00:57:49;96982.28;;;10.30;100.00
36190;BME280;22232;50.914;13.858;2024-03-23T01:00:15;96983.81;;;10.26;100.00
36190;BME280;22232;50.914;13.858;2024-03-23T01:02:42;96985.22;;;10.11;100.00
36190;BME280;22232;50.914;13.858;2024-03-23T01:05:08;96975.16;;;10.14;100.00
36190;BME280;22232;50.914;13.858;2024-03-23T01:07:35;96976.06;;;10.02;100.00
36190;BME280;22232;50.914;13.858;2024-03-23T01:10:01;96974.47;;;10.01;100.00
36190;BME280;22232;50.914;13.858;2024-03-23T01:12:28;96969.63;;;9.98;100.00
36190;BME280;22232;50.914;13.858;2024-03-23T01:14:54;96974.06;;;9.93;100.00
36190;BME280;22232;50.914;13.858;2024-03-23T01:17:21;96977.47;;;9.88;100.00
36190;BME280;22232;50.914;13.858;2024-03-23T01:19:47;96971.53;;;9.81;100.00
36190;BME280;22232;50.914;13.858;2024-03-23T01:22:13;96971.94;;;9.73;100.00
36190;BME280;22232;50.914;13.858;2024-03-23T01:24:40;96981.97;;;9.65;100.00
36190;BME280;22232;50.914;13.858;2024-03-23T01:27:06;96977.13;;;9.62;100.00
36190;BME280;22232;50.914;13.858;2024-03-23T01:29:33;96964.78;;;9.56;100.00
36190;BME280;22232;50.914;13.858;2024-03-23T01:31:59;96963.28;;;9.44;100.00
36190;BME280;22232;50.914;13.858;2024-03-23T01:38:33;96946.28;;;9.11;100.00
36190;BME280;22232;50.914;13.858;2024-03-23T01:40:59;96936.53;;;9.00;100.00
36190;BME280;22232;50.914;13.858;2024-03-23T01:43:25;96932.97;;;8.94;100.00
36190;BME280;22232;50.914;13.858;2024-03-23T01:45:52;96928.88;;;8.86;100.00
36190;BME280;22232;50.914;13.858;2024-03-23T01:48:20;96926.59;;;8.78;100.00
36190;BME280;22232;50.914;13.858;2024-03-23T01:50:47;96921.75;;;8.75;100.00
36190;BME280;22232;50.914;13.858;2024-03-23T01:53:14;96913.94;;;8.68;100.00
36190;BME280;22232;50.914;13.858;2024-03-23T01:55:43;96919.00;;;8.70;100.00
36190;BME280;22232;50.914;13.858;2024-03-23T01:58:10;96921.13;;;8.68;100.00
36190;BME280;22232;50.914;13.858;2024-03-23T02:00:37;96915.81;;;8.68;100.00
36190;BME280;22232;50.914;13.858;2024-03-23T02:03:22;96912.34;;;8.67;100.00
36190;BME280;22232;50.914;13.858;2024-03-23T02:05:49;96917.88;;;8.66;100.00
36190;BME280;22232;50.914;13.858;2024-03-23T02:08:17;96912.81;;;8.64;100.00
36190;BME280;22232;50.914;13.858;2024-03-23T02:10:44;96916.75;;;8.62;100.00
36190;BME280;22232;50.914;13.858;2024-03-23T02:13:10;96911.78;;;8.65;100.00
36190;BME280;22232;50.914;13.858;2024-03-23T02:15:39;96904.59;;;8.66;100.00
36190;BME280;22232;50.914;13.858;2024-03-23T02:18:07;96898.22;;;8.67;100.00
36190;BME280;22232;50.914;13.858;2024-03-23T02:20:35;96904.03;;;8.64;100.00
36190;BME280;22232;50.914;13.858;2024-03-23T02:23:02;96903.69;;;8.60;100.00
36190;BME280;22232;50.914;13.858;2024-03-23T02:25:28;96895.41;;;8.57;100.00
36190;BME280;22232;50.914;13.858;2024-03-23T02:27:55;96888.97;;;8.53;100.00
36190;BME280;22232;50.914;13.858;2024-03-23T02:30:21;96883.31;;;8.49;100.00
36190;BME280;22232;50.914;13.858;2024-03-23T02:32:47;96884.34;;;8.48;100.00
36190;BME280;22232;50.914;13.858;2024-03-23T02:35:14;96883.66;;;8.53;100.00
36190;BME280;22232;50.914;13.858;2024-03-23T02:37:40;96878.66;;;8.56;100.00
36190;BME280;22232;50.914;13.858;2024-03-23T02:40:08;96878.97;;;8.60;100.00
36190;BME280;22232;50.914;13.858;2024-03-23T02:42:34;96882.13;;;8.57;100.00
36190;BME280;22232;50.914;13.858;2024-03-23T02:45:00;96878.88;;;8.55;100.00
36190;BME280;22232;50.914;13.858;2024-03-23T02:47:27;96876.81;;;8.57;100.00
36190;BME280;22232;50.914;13.858;2024-03-23T02:49:53;96877.38;;;8.59;100.00
36190;BME280;22232;50.914;13.858;2024-03-23T02:52:21;96875.53;;;8.59;100.00
36190;BME280;22232;50.914;13.858;2024-03-23T02:54:47;96877.06;;;8.55;100.00
36190;BME280;22232;50.914;13.858;2024-03-23T02:57:14;96872.44;;;8.50;100.00
36190;BME280;22232;50.914;13.858;2024-03-23T02:59:40;96868.72;;;8.52;100.00
36190;BME280;22232;50.914;13.858;2024-03-23T03:02:07;96865.69;;;8.60;100.00
36190;BME280;22232;50.914;13.858;2024-03-23T03:04:34;96867.88;;;8.63;100.00
36190;BME280;22232;50.914;13.858;2024-03-23T03:07:00;96861.75;;;8.62;100.00
36190;BME280;22232;50.914;13.858;2024-03-23T03:09:27;96848.47;;;8.62;100.00
36190;BME280;22232;50.914;13.858;2024-03-23T03:11:53;96861.44;;;8.59;100.00
36190;BME280;22232;50.914;13.858;2024-03-23T03:14:20;96855.31;;;8.58;100.00
36190;BME280;22232;50.914;13.858;2024-03-23T03:16:46;96850.97;;;8.52;100.00
36190;BME280;22232;50.914;13.858;2024-03-23T03:19:12;96839.97;;;8.48;100.00
36190;BME280;22232;50.914;13.858;2024-03-23T03:21:39;96824.13;;;8.54;100.00
36190;BME280;22232;50.914;13.858;2024-03-23T03:24:06;96824.44;;;8.57;100.00
36190;BME280;22232;50.914;13.858;2024-03-23T03:26:32;96828.16;;;8.56;100.00
36190;BME280;22232;50.914;13.858;2024-03-23T03:28:59;96813.19;;;8.50;100.00
36190;BME280;22232;50.914;13.858;2024-03-23T03:31:25;96806.72;;;8.46;100.00
36190;BME280;22232;50.914;13.858;2024-03-23T03:33:52;96813.09;;;8.45;100.00
36190;BME280;22232;50.914;13.858;2024-03-23T03:36:18;96810.69;;;8.43;100.00
36190;BME280;22232;50.914;13.858;2024-03-23T03:38:45;96802.16;;;8.41;100.00
36190;BME280;22232;50.914;13.858;2024-03-23T03:41:11;96808.13;;;8.37;100.00
36190;BME280;22232;50.914;13.858;2024-03-23T03:43:38;96805.41;;;8.32;100.00
36190;BME280;22232;50.914;13.858;2024-03-23T03:46:04;96808.78;;;8.27;100.00
36190;BME280;22232;50.914;13.858;2024-03-23T03:48:31;96807.19;;;8.26;100.00
36190;BME280;22232;50.914;13.858;2024-03-23T03:50:57;96803.47;;;8.27;100.00
36190;BME280;22232;50.914;13.858;2024-03-23T03:53:23;96809.94;;;8.31;100.00
36190;BME280;22232;50.914;13.858;2024-03-23T03:55:50;96802.19;;;8.30;100.00
36190;BME280;22232;50.914;13.858;2024-03-23T03:58:16;96796.97;;;8.35;100.00
36190;BME280;22232;50.914;13.858;2024-03-23T04:00:43;96797.50;;;8.37;100.00
36190;BME280;22232;50.914;13.858;2024-03-23T04:03:09;96800.78;;;8.39;100.00
36190;BME280;22232;50.914;13.858;2024-03-23T04:05:36;96792.00;;;8.38;100.00
36190;BME280;22232;50.914;13.858;2024-03-23T04:08:02;96787.00;;;8.42;100.00
36190;BME280;22232;50.914;13.858;2024-03-23T04:10:29;96782.16;;;8.39;100.00
36190;BME280;22232;50.914;13.858;2024-03-23T04:12:55;96769.91;;;8.38;100.00
36190;BME280;22232;50.914;13.858;2024-03-23T04:15:22;96767.81;;;8.40;100.00
36190;BME280;22232;50.914;13.858;2024-03-23T04:17:48;96763.22;;;8.35;100.00
36190;BME280;22232;50.914;13.858;2024-03-23T04:20:15;96764.41;;;8.27;100.00
36190;BME280;22232;50.914;13.858;2024-03-23T04:22:43;96758.47;;;8.20;100.00
36190;BME280;22232;50.914;13.858;2024-03-23T04:25:09;96757.09;;;8.18;100.00
36190;BME280;22232;50.914;13.858;2024-03-23T04:27:37;96760.16;;;8.10;100.00
36190;BME280;22232;50.914;13.858;2024-03-23T04:30:05;96764.91;;;8.08;100.00
36190;BME280;22232;50.914;13.858;2024-03-23T04:32:39;96755.56;;;8.05;100.00
36190;BME280;22232;50.914;13.858;2024-03-23T04:35:06;96752.59;;;8.01;100.00
36190;BME280;22232;50.914;13.858;2024-03-23T04:37:35;96747.19;;;7.96;100.00
36190;BME280;22232;50.914;13.858;2024-03-23T04:40:02;96746.63;;;7.94;100.00
36190;BME280;22232;50.914;13.858;2024-03-23T04:42:29;96749.50;;;7.93;100.00
36190;BME280;22232;50.914;13.858;2024-03-23T04:44:56;96746.75;;;7.88;100.00
36190;BME280;22232;50.914;13.858;2024-03-23T04:47:22;96740.44;;;7.89;100.00
36190;BME280;22232;50.914;13.858;2024-03-23T04:49:49;96730.44;;;7.96;100.00
36190;BME280;22232;50.914;13.858;2024-03-23T04:52:16;96725.47;;;7.99;100.00
36190;BME280;22232;50.914;13.858;2024-03-23T04:54:42;96708.72;;;7.99;100.00
36190;BME280;22232;50.914;13.858;2024-03-23T04:57:09;96698.91;;;7.99;100.00
36190;BME280;22232;50.914;13.858;2024-03-23T04:59:35;96679.22;;;7.95;100.00
36190;BME280;22232;50.914;13.858;2024-03-23T05:02:02;96673.06;;;7.78;100.00
36190;BME280;22232;50.914;13.858;2024-03-23T05:04:29;96664.22;;;7.72;100.00
36190;BME280;22232;50.914;13.858;2024-03-23T05:06:55;96642.41;;;7.53;100.00
36190;BME280;22232;50.914;13.858;2024-03-23T05:09:21;96636.53;;;7.51;100.00
36190;BME280;22232;50.914;13.858;2024-03-23T05:11:48;96632.91;;;7.41;100.00
36190;BME280;22232;50.914;13.858;2024-03-23T05:14:15;96623.44;;;7.45;100.00
36190;BME280;22232;50.914;13.858;2024-03-23T05:16:41;96628.19;;;7.43;100.00
36190;BME280;22232;50.914;13.858;2024-03-23T05:19:07;96617.00;;;7.57;100.00
36190;BME280;22232;50.914;13.858;2024-03-23T05:21:34;96625.28;;;7.78;100.00
36190;BME280;22232;50.914;13.858;2024-03-23T05:24:00;96609.50;;;8.05;100.00
36190;BME280;22232;50.914;13.858;2024-03-23T05:26:27;96617.69;;;8.37;100.00
36190;BME280;22232;50.914;13.858;2024-03-23T05:28:53;96596.06;;;8.72;100.00
36190;BME280;22232;50.914;13.858;2024-03-23T05:31:27;96600.19;;;9.07;100.00
36190;BME280;22232;50.914;13.858;2024-03-23T05:33:54;96600.41;;;9.33;100.00
36190;BME280;22232;50.914;13.858;2024-03-23T05:36:21;96593.59;;;9.74;100.00
36190;BME280;22232;50.914;13.858;2024-03-23T05:38:48;96572.22;;;10.01;100.00
36190;BME280;22232;50.914;13.858;2024-03-23T05:41:14;96569.81;;;10.52;100.00
36190;BME280;22232;50.914;13.858;2024-03-23T05:43:41;96572.59;;;10.20;100.00
36190;BME280;22232;50.914;13.858;2024-03-23T05:46:07;96581.22;;;9.95;100.00
36190;BME280;22232;50.914;13.858;2024-03-23T05:48:35;96592.56;;;9.80;100.00
36190;BME280;22232;50.914;13.858;2024-03-23T05:51:01;96587.84;;;9.55;100.00
36190;BME280;22232;50.914;13.858;2024-03-23T05:53:28;96583.09;;;9.30;100.00
36190;BME280;22232;50.914;13.858;2024-03-23T05:56:03;96575.47;;;9.12;100.00
36190;BME280;22232;50.914;13.858;2024-03-23T05:58:30;96575.38;;;9.02;100.00
36190;BME280;22232;50.914;13.858;2024-03-23T06:01:01;96557.28;;;8.99;100.00
36190;BME280;22232;50.914;13.858;2024-03-23T06:03:31;96558.06;;;8.99;100.00
36190;BME280;22232;50.914;13.858;2024-03-23T06:05:57;96553.19;;;8.91;100.00
36190;BME280;22232;50.914;13.858;2024-03-23T06:08:24;96556.16;;;8.94;100.00
36190;BME280;22232;50.914;13.858;2024-03-23T06:10:51;96542.03;;;8.89;100.00
36190;BME280;22232;50.914;13.858;2024-03-23T06:13:18;96536.44;;;8.90;100.00
36190;BME280;22232;50.914;13.858;2024-03-23T06:15:44;96545.50;;;8.94;100.00
36190;BME280;22232;50.914;13.858;2024-03-23T06:18:12;96534.28;;;8.87;100.00
36190;BME280;22232;50.914;13.858;2024-03-23T06:20:39;96520.53;;;8.95;100.00
36190;BME280;22232;50.914;13.858;2024-03-23T06:23:05;96518.19;;;8.99;100.00
36190;BME280;22232;50.914;13.858;2024-03-23T06:25:32;96503.03;;;9.00;100.00
36190;BME280;22232;50.914;13.858;2024-03-23T06:27:58;96500.38;;;9.00;100.00
36190;BME280;22232;50.914;13.858;2024-03-23T06:30:25;96499.63;;;8.77;100.00
36190;BME280;22232;50.914;13.858;2024-03-23T06:32:53;96504.28;;;8.65;100.00
36190;BME280;22232;50.914;13.858;2024-03-23T06:35:19;96500.00;;;8.64;100.00
36190;BME280;22232;50.914;13.858;2024-03-23T06:37:46;96495.75;;;8.63;100.00
36190;BME280;22232;50.914;13.858;2024-03-23T06:40:12;96483.53;;;8.62;100.00
36190;BME280;22232;50.914;13.858;2024-03-23T06:42:39;96477.59;;;8.55;100.00
36190;BME280;22232;50.914;13.858;2024-03-23T06:45:05;96470.13;;;8.52;100.00
36190;BME280;22232;50.914;13.858;2024-03-23T06:47:32;96464.78;;;8.46;100.00
36190;BME280;22232;50.914;13.858;2024-03-23T06:50:00;96468.72;;;8.44;100.00
36190;BME280;22232;50.914;13.858;2024-03-23T06:52:30;96462.47;;;8.33;100.00
36190;BME280;22232;50.914;13.858;2024-03-23T06:54:57;96460.38;;;8.35;100.00
36190;BME280;22232;50.914;13.858;2024-03-23T06:57:24;96467.91;;;8.21;100.00
36190;BME280;22232;50.914;13.858;2024-03-23T06:59:50;96459.91;;;8.38;100.00
36190;BME280;22232;50.914;13.858;2024-03-23T07:02:17;96458.09;;;8.44;100.00
36190;BME280;22232;50.914;13.858;2024-03-23T07:04:43;96456.81;;;8.46;100.00
36190;BME280;22232;50.914;13.858;2024-03-23T07:07:10;96454.75;;;8.54;100.00
36190;BME280;22232;50.914;13.858;2024-03-23T07:09:36;96455.59;;;8.59;100.00
36190;BME280;22232;50.914;13.858;2024-03-23T07:12:04;96446.81;;;8.59;100.00
36190;BME280;22232;50.914;13.858;2024-03-23T07:14:30;96452.00;;;8.70;100.00
36190;BME280;22232;50.914;13.858;2024-03-23T07:16:57;96435.31;;;8.80;100.00
36190;BME280;22232;50.914;13.858;2024-03-23T07:19:23;96432.75;;;8.90;100.00
36190;BME280;22232;50.914;13.858;2024-03-23T07:21:50;96405.94;;;8.97;100.00
36190;BME280;22232;50.914;13.858;2024-03-23T07:24:17;96409.47;;;9.08;100.00
36190;BME280;22232;50.914;13.858;2024-03-23T07:26:43;96411.13;;;9.14;100.00
36190;BME280;22232;50.914;13.858;2024-03-23T07:29:10;96408.22;;;9.21;100.00
36190;BME280;22232;50.914;13.858;2024-03-23T07:31:36;96394.19;;;9.30;100.00
36190;BME280;22232;50.914;13.858;2024-03-23T07:34:03;96384.94;;;9.38;100.00
36190;BME280;22232;50.914;13.858;2024-03-23T07:36:29;96383.91;;;9.44;100.00
36190;BME280;22232;50.914;13.858;2024-03-23T07:38:55;96380.19;;;9.45;100.00
36190;BME280;22232;50.914;13.858;2024-03-23T07:41:22;96369.84;;;9.54;100.00
36190;BME280;22232;50.914;13.858;2024-03-23T07:43:48;96366.69;;;9.62;100.00
36190;BME280;22232;50.914;13.858;2024-03-23T07:46:16;96365.34;;;9.64;100.00
36190;BME280;22232;50.914;13.858;2024-03-23T07:48:42;96351.09;;;9.86;100.00
36190;BME280;22232;50.914;13.858;2024-03-23T07:51:17;96347.38;;;9.97;100.00
36190;BME280;22232;50.914;13.858;2024-03-23T07:53:44;96345.28;;;10.04;100.00
36190;BME280;22232;50.914;13.858;2024-03-23T07:56:15;96351.69;;;10.19;100.00
36190;BME280;22232;50.914;13.858;2024-03-23T07:58:42;96334.16;;;10.33;100.00
36190;BME280;22232;50.914;13.858;2024-03-23T08:01:13;96322.19;;;10.56;100.00
36190;BME280;22232;50.914;13.858;2024-03-23T08:03:44;96314.69;;;10.78;100.00
36190;BME280;22232;50.914;13.858;2024-03-23T08:06:18;96301.88;;;10.91;100.00
36190;BME280;22232;50.914;13.858;2024-03-23T08:08:51;96293.84;;;11.11;100.00
36190;BME280;22232;50.914;13.858;2024-03-23T08:11:30;96287.66;;;11.26;100.00
36190;BME280;22232;50.914;13.858;2024-03-23T08:13:57;96272.41;;;11.37;100.00
36190;BME280;22232;50.914;13.858;2024-03-23T08:16:24;96278.75;;;11.51;100.00
36190;BME280;22232;50.914;13.858;2024-03-23T08:18:54;96273.34;;;11.61;100.00
36190;BME280;22232;50.914;13.858;2024-03-23T08:21:23;96268.50;;;11.74;100.00
36190;BME280;22232;50.914;13.858;2024-03-23T08:23:51;96260.47;;;11.79;100.00
36190;BME280;22232;50.914;13.858;2024-03-23T08:26:17;96259.53;;;11.99;100.00
36190;BME280;22232;50.914;13.858;2024-03-23T08:28:44;96253.28;;;12.19;100.00
36190;BME280;22232;50.914;13.858;2024-03-23T08:31:11;96252.47;;;12.18;100.00
36190;BME280;22232;50.914;13.858;2024-03-23T08:33:39;96256.63;;;12.34;100.00
36190;BME280;22232;50.914;13.858;2024-03-23T08:36:07;96252.56;;;12.42;100.00
36190;BME280;22232;50.914;13.858;2024-03-23T08:38:34;96262.22;;;12.67;100.00
36190;BME280;22232;50.914;13.858;2024-03-23T08:41:03;96252.63;;;12.90;100.00
36190;BME280;22232;50.914;13.858;2024-03-23T08:43:31;96263.75;;;13.02;100.00
36190;BME280;22232;50.914;13.858;2024-03-23T08:46:04;96258.34;;;13.07;100.00
36190;BME280;22232;50.914;13.858;2024-03-23T08:48:32;96261.19;;;13.16;94.28
36190;BME280;22232;50.914;13.858;2024-03-23T08:51:08;96258.72;;;13.25;97.38
36190;BME280;22232;50.914;13.858;2024-03-23T08:53:35;96253.63;;;13.23;98.87
36190;BME280;22232;50.914;13.858;2024-03-23T08:56:03;96265.72;;;13.21;97.62
36190;BME280;22232;50.914;13.858;2024-03-23T08:58:31;96265.00;;;13.10;97.06
36190;BME280;22232;50.914;13.858;2024-03-23T09:01:03;96260.38;;;12.92;97.96
36190;BME280;22232;50.914;13.858;2024-03-23T09:03:30;96258.31;;;12.83;96.34
36190;BME280;22232;50.914;13.858;2024-03-23T09:05:57;96251.00;;;12.65;96.84
36190;BME280;22232;50.914;13.858;2024-03-23T09:08:25;96245.88;;;12.45;98.77
36190;BME280;22232;50.914;13.858;2024-03-23T09:10:52;96253.34;;;12.43;97.78
36190;BME280;22232;50.914;13.858;2024-03-23T09:13:18;96262.72;;;12.40;99.41
36190;BME280;22232;50.914;13.858;2024-03-23T09:15:49;96266.22;;;12.35;100.00
36190;BME280;22232;50.914;13.858;2024-03-23T09:18:17;96257.94;;;12.37;100.00
36190;BME280;22232;50.914;13.858;2024-03-23T09:20:43;96248.28;;;12.41;100.00
36190;BME280;22232;50.914;13.858;2024-03-23T09:23:10;96248.47;;;12.50;100.00
36190;BME280;22232;50.914;13.858;2024-03-23T09:25:39;96259.81;;;12.66;100.00
36190;BME280;22232;50.914;13.858;2024-03-23T09:28:06;96258.97;;;12.75;100.00
36190;BME280;22232;50.914;13.858;2024-03-23T09:30:35;96275.94;;;12.60;100.00
36190;BME280;22232;50.914;13.858;2024-03-23T09:33:09;96290.94;;;12.22;100.00
36190;BME280;22232;50.914;13.858;2024-03-23T09:35:39;96300.53;;;11.74;100.00
36190;BME280;22232;50.914;13.858;2024-03-23T09:38:06;96315.44;;;11.20;100.00
36190;BME280;22232;50.914;13.858;2024-03-23T09:40:42;96299.47;;;10.99;100.00
36190;BME280;22232;50.914;13.858;2024-03-23T09:43:09;96300.50;;;10.98;100.00
36190;BME280;22232;50.914;13.858;2024-03-23T09:45:39;96307.19;;;11.11;100.00
36190;BME280;22232;50.914;13.858;2024-03-23T09:48:08;96288.50;;;11.06;100.00
36190;BME280;22232;50.914;13.858;2024-03-23T09:50:43;96296.41;;;11.42;100.00
36190;BME280;22232;50.914;13.858;2024-03-23T09:53:12;96296.91;;;11.54;100.00
36190;BME280;22232;50.914;13.858;2024-03-23T09:55:40;96304.31;;;11.67;100.00
36190;BME280;22232;50.914;13.858;2024-03-23T09:58:07;96313.75;;;11.44;100.00
36190;BME280;22232;50.914;13.858;2024-03-23T10:00:35;96329.81;;;11.24;100.00
36190;BME280;22232;50.914;13.858;2024-03-23T10:03:01;96348.31;;;10.59;100.00
36190;BME280;22232;50.914;13.858;2024-03-23T10:05:29;96377.06;;;10.26;100.00
36190;BME280;22232;50.914;13.858;2024-03-23T10:07:57;96370.09;;;10.20;100.00
36190;BME280;22232;50.914;13.858;2024-03-23T10:10:27;96392.59;;;9.82;100.00
36190;BME280;22232;50.914;13.858;2024-03-23T10:12:53;96412.06;;;9.40;100.00
36190;BME280;22232;50.914;13.858;2024-03-23T10:15:23;96442.25;;;9.13;100.00
36190;BME280;22232;50.914;13.858;2024-03-23T10:17:50;96466.47;;;8.58;100.00
36190;BME280;22232;50.914;13.858;2024-03-23T10:20:21;96474.72;;;8.34;100.00
36190;BME280;22232;50.914;13.858;2024-03-23T10:22:51;96483.66;;;8.06;100.00
36190;BME280;22232;50.914;13.858;2024-03-23T10:25:22;96509.09;;;7.80;100.00
36190;BME280;22232;50.914;13.858;2024-03-23T10:27:59;96527.78;;;7.34;100.00
36190;BME280;22232;50.914;13.858;2024-03-23T10:30:26;96566.78;;;7.05;100.00
36190;BME280;22232;50.914;13.858;2024-03-23T10:33:10;96571.88;;;6.78;100.00
36190;BME280;22232;50.914;13.858;2024-03-23T10:35:37;96589.28;;;6.46;100.00
36190;BME280;22232;50.914;13.858;2024-03-23T10:38:05;96602.66;;;6.15;100.00
36190;BME280;22232;50.914;13.858;2024-03-23T10:40:34;96634.91;;;6.01;100.00
36190;BME280;22232;50.914;13.858;2024-03-23T10:43:03;96661.47;;;5.94;100.00
36190;BME280;22232;50.914;13.858;2024-03-23T10:45:30;96672.94;;;5.76;100.00
36190;BME280;22232;50.914;13.858;2024-03-23T10:47:56;96689.56;;;5.65;100.00
36190;BME280;22232;50.914;13.858;2024-03-23T10:50:23;96693.56;;;5.56;100.00
36190;BME280;22232;50.914;13.858;2024-03-23T10:52:52;96705.16;;;5.43;100.00
36190;BME280;22232;50.914;13.858;2024-03-23T10:55:20;96721.78;;;5.32;100.00
36190;BME280;22232;50.914;13.858;2024-03-23T10:57:54;96729.88;;;5.18;100.00
36190;BME280;22232;50.914;13.858;2024-03-23T11:00:22;96729.97;;;5.12;100.00
36190;BME280;22232;50.914;13.858;2024-03-23T11:02:49;96730.63;;;5.07;100.00
36190;BME280;22232;50.914;13.858;2024-03-23T11:05:28;96750.34;;;5.23;100.00
36190;BME280;22232;50.914;13.858;2024-03-23T11:07:55;96766.16;;;5.29;100.00
36190;BME280;22232;50.914;13.858;2024-03-23T11:10:26;96774.75;;;5.25;100.00
36190;BME280;22232;50.914;13.858;2024-03-23T11:12:58;96764.53;;;5.28;100.00
36190;BME280;22232;50.914;13.858;2024-03-23T11:15:44;96771.00;;;5.33;100.00
36190;BME280;22232;50.914;13.858;2024-03-23T11:18:11;96770.09;;;5.39;100.00
36190;BME280;22232;50.914;13.858;2024-03-23T11:20:38;96762.09;;;5.45;100.00
36190;BME280;22232;50.914;13.858;2024-03-23T11:23:04;96752.91;;;5.48;100.00
36190;BME280;22232;50.914;13.858;2024-03-23T11:25:31;96744.91;;;5.36;100.00
36190;BME280;22232;50.914;13.858;2024-03-23T11:28:09;96736.97;;;5.36;100.00
36190;BME280;22232;50.914;13.858;2024-03-23T11:30:36;96768.94;;;5.16;100.00
36190;BME280;22232;50.914;13.858;2024-03-23T11:33:04;96772.44;;;5.28;100.00
36190;BME280;22232;50.914;13.858;2024-03-23T11:35:35;96791.47;;;5.37;100.00
36190;BME280;22232;50.914;13.858;2024-03-23T11:38:10;96806.09;;;5.21;100.00
36190;BME280;22232;50.914;13.858;2024-03-23T11:40:38;96808.50;;;5.04;100.00
36190;BME280;22232;50.914;13.858;2024-03-23T11:43:06;96816.81;;;5.08;100.00
36190;BME280;22232;50.914;13.858;2024-03-23T11:45:37;96828.13;;;5.15;100.00
36190;BME280;22232;50.914;13.858;2024-03-23T11:50:35;96816.38;;;5.11;100.00
36190;BME280;22232;50.914;13.858;2024-03-23T11:55:51;96821.00;;;5.34;100.00
36190;BME280;22232;50.914;13.858;2024-03-23T11:58:20;96811.13;;;5.41;100.00
36190;BME280;22232;50.914;13.858;2024-03-23T12:03:22;96817.34;;;5.65;100.00
36190;BME280;22232;50.914;13.858;2024-03-23T12:05:53;96825.69;;;5.81;100.00
36190;BME280;22232;50.914;13.858;2024-03-23T12:08:22;96810.19;;;5.84;100.00
36190;BME280;22232;50.914;13.858;2024-03-23T12:10:50;96805.47;;;5.86;100.00
36190;BME280;22232;50.914;13.858;2024-03-23T12:13:21;96801.22;;;5.85;100.00
36190;BME280;22232;50.914;13.858;2024-03-23T12:15:50;96795.19;;;6.08;100.00
36190;BME280;22232;50.914;13.858;2024-03-23T12:18:17;96803.28;;;6.13;100.00
36190;BME280;22232;50.914;13.858;2024-03-23T12:20:44;96809.72;;;6.17;100.00
36190;BME280;22232;50.914;13.858;2024-03-23T12:23:11;96803.19;;;6.20;100.00
36190;BME280;22232;50.914;13.858;2024-03-23T12:25:41;96802.63;;;6.41;100.00
36190;BME280;22232;50.914;13.858;2024-03-23T12:28:08;96816.69;;;6.42;100.00
36190;BME280;22232;50.914;13.858;2024-03-23T12:30:40;96816.91;;;6.29;100.00
36190;BME280;22232;50.914;13.858;2024-03-23T12:33:07;96811.16;;;6.43;100.00
36190;BME280;22232;50.914;13.858;2024-03-23T12:35:33;96809.78;;;6.41;100.00
36190;BME280;22232;50.914;13.858;2024-03-23T12:38:00;96813.84;;;6.55;100.00
36190;BME280;22232;50.914;13.858;2024-03-23T12:40:26;96815.00;;;6.71;100.00
36190;BME280;22232;50.914;13.858;2024-03-23T12:42:54;96817.19;;;6.86;100.00
36190;BME280;22232;50.914;13.858;2024-03-23T12:45:22;96832.72;;;7.06;100.00
36190;BME280;22232;50.914;13.858;2024-03-23T12:47:49;96831.25;;;6.98;100.00
36190;BME280;22232;50.914;13.858;2024-03-23T12:50:15;96848.06;;;6.80;100.00
36190;BME280;22232;50.914;13.858;2024-03-23T12:52:42;96845.66;;;6.79;100.00
36190;BME280;22232;50.914;13.858;2024-03-23T12:55:08;96852.22;;;6.76;100.00
36190;BME280;22232;50.914;13.858;2024-03-23T12:57:35;96851.28;;;6.59;100.00
36190;BME280;22232;50.914;13.858;2024-03-23T13:00:02;96846.78;;;6.59;100.00
36190;BME280;22232;50.914;13.858;2024-03-23T13:02:30;96822.56;;;7.03;100.00
36190;BME280;22232;50.914;13.858;2024-03-23T13:04:56;96813.72;;;6.74;100.00
36190;BME280;22232;50.914;13.858;2024-03-23T13:07:23;96813.59;;;6.57;100.00
36190;BME280;22232;50.914;13.858;2024-03-23T13:09:50;96838.13;;;6.52;100.00
36190;BME280;22232;50.914;13.858;2024-03-23T13:12:18;96837.97;;;6.35;100.00
36190;BME280;22232;50.914;13.858;2024-03-23T13:14:47;96865.31;;;6.17;100.00
36190;BME280;22232;50.914;13.858;2024-03-23T13:17:13;96870.97;;;6.09;100.00
36190;BME280;22232;50.914;13.858;2024-03-23T13:19:40;96889.44;;;5.97;100.00
36190;BME280;22232;50.914;13.858;2024-03-23T13:22:07;96907.91;;;5.67;100.00
36190;BME280;22232;50.914;13.858;2024-03-23T13:24:37;96922.59;;;5.63;100.00
36190;BME280;22232;50.914;13.858;2024-03-23T13:27:04;96922.16;;;5.48;100.00
36190;BME280;22232;50.914;13.858;2024-03-23T13:29:34;96932.28;;;5.33;100.00
36190;BME280;22232;50.914;13.858;2024-03-23T13:32:01;96948.00;;;5.46;100.00
36190;BME280;22232;50.914;13.858;2024-03-23T13:34:28;96952.25;;;5.47;100.00
36190;BME280;22232;50.914;13.858;2024-03-23T13:36:55;96953.06;;;5.47;100.00
36190;BME280;22232;50.914;13.858;2024-03-23T13:39:24;96953.81;;;5.55;100.00
36190;BME280;22232;50.914;13.858;2024-03-23T13:41:51;96930.00;;;5.73;100.00
36190;BME280;22232;50.914;13.858;2024-03-23T13:44:17;96921.66;;;5.94;100.00
36190;BME280;22232;50.914;13.858;2024-03-23T13:46:44;96921.66;;;6.25;100.00
36190;BME280;22232;50.914;13.858;2024-03-23T13:49:24;96923.06;;;6.39;100.00
36190;BME280;22232;50.914;13.858;2024-03-23T13:51:51;96941.31;;;6.47;100.00
36190;BME280;22232;50.914;13.858;2024-03-23T13:54:17;96939.94;;;6.56;100.00
36190;BME280;22232;50.914;13.858;2024-03-23T13:56:44;96915.34;;;6.68;100.00